createdAt,value
2023-05-10T00:00:45.578Z,99.99
2023-05-10T00:01:45.780Z,99.99
2023-05-10T00:02:46.048Z,99.99
2023-05-10T00:03:46.195Z,99.99
2023-05-10T00:04:47.209Z,99.99
2023-05-10T00:05:47.203Z,99.99
2023-05-10T00:06:47.206Z,99.99
2023-05-10T00:07:46.877Z,99.99
2023-05-10T00:08:47.126Z,99.99
2023-05-10T00:09:47.321Z,99.99
2023-05-10T00:10:47.491Z,99.99
2023-05-10T00:11:47.649Z,99.99
2023-05-10T00:12:47.896Z,99.99
2023-05-10T00:13:47.990Z,99.99
2023-05-10T00:14:48.175Z,99.99
2023-05-10T00:15:48.347Z,99.99
2023-05-10T00:16:50.218Z,99.99
2023-05-10T00:17:48.790Z,99.99
2023-05-10T00:18:50.175Z,99.99
2023-05-10T00:19:49.187Z,99.99
2023-05-10T00:20:50.170Z,99.99
2023-05-10T00:21:50.207Z,99.99
2023-05-10T00:22:49.716Z,99.99
2023-05-10T00:23:50.672Z,99.99
2023-05-10T00:24:50.101Z,99.99
2023-05-10T00:25:51.175Z,99.99
2023-05-10T00:26:50.427Z,99.99
2023-05-10T00:27:50.616Z,99.99
2023-05-10T00:28:51.776Z,99.99
2023-05-10T00:29:50.920Z,99.99
2023-05-10T00:30:51.092Z,99.99
2023-05-10T00:31:51.730Z,99.99
2023-05-10T00:32:51.403Z,99.99
2023-05-10T00:33:54.615Z,99.99
2023-05-10T00:34:51.703Z,99.99
2023-05-10T00:35:51.894Z,99.99
2023-05-10T00:36:53.044Z,99.99
2023-05-10T00:37:52.225Z,99.99
2023-05-10T00:38:53.183Z,99.99
2023-05-10T00:39:52.560Z,99.99
2023-05-10T00:40:52.732Z,99.99
2023-05-10T00:41:53.686Z,99.99
2023-05-10T00:42:53.055Z,99.99
2023-05-10T00:43:54.182Z,99.99
2023-05-10T00:44:54.183Z,99.99
2023-05-10T00:45:53.616Z,99.99
2023-05-10T00:46:54.754Z,99.99
2023-05-10T00:47:54.041Z,99.99
2023-05-10T00:48:54.248Z,99.99
2023-05-10T00:49:54.403Z,99.99
2023-05-10T00:50:54.564Z,99.99
2023-05-10T00:51:55.239Z,99.99
2023-05-10T00:52:56.191Z,99.99
2023-05-10T00:53:55.044Z,99.99
2023-05-10T00:54:55.181Z,99.99
2023-05-10T00:55:56.225Z,99.99
2023-05-10T00:56:55.493Z,99.99
2023-05-10T00:57:55.686Z,99.99
2023-05-10T00:58:57.688Z,99.99
2023-05-10T00:59:56.070Z,99.99
2023-05-10T01:00:57.209Z,99.99
2023-05-10T01:01:56.376Z,99.99
2023-05-10T01:02:58.321Z,99.99
2023-05-10T01:03:56.717Z,99.99
2023-05-10T01:04:57.272Z,99.99
2023-05-10T01:05:57.105Z,99.99
2023-05-10T01:06:57.287Z,99.99
2023-05-10T01:07:58.228Z,99.99
2023-05-10T01:08:57.581Z,99.99
2023-05-10T01:09:58.692Z,99.99
2023-05-10T01:10:58.691Z,99.99
2023-05-10T01:11:58.157Z,99.99
2023-05-10T01:12:58.219Z,99.99
2023-05-10T01:13:59.211Z,99.99
2023-05-10T01:14:59.554Z,99.99
2023-05-10T01:15:58.894Z,99.99
2023-05-10T01:16:59.740Z,99.99
2023-05-10T01:17:59.767Z,99.99
2023-05-10T01:19:00.213Z,99.99
2023-05-10T01:20:00.215Z,99.99
2023-05-10T01:20:59.750Z,99.99
2023-05-10T01:21:59.900Z,99.99
2023-05-10T01:23:00.076Z,99.99
2023-05-10T01:24:00.282Z,99.99
2023-05-10T01:25:01.197Z,99.99
2023-05-10T01:26:00.584Z,99.99
2023-05-10T01:27:01.704Z,99.99
2023-05-10T01:28:02.701Z,99.99
2023-05-10T01:29:01.072Z,99.99
2023-05-10T01:30:14.664Z,99.99
2023-05-10T01:31:03.467Z,99.99
2023-05-10T01:32:01.624Z,99.99
2023-05-10T01:33:02.791Z,99.99
2023-05-10T01:34:02.700Z,99.99
2023-05-10T01:35:02.137Z,99.99
2023-05-10T01:36:02.324Z,99.99
2023-05-10T01:37:02.490Z,99.99
2023-05-10T01:38:03.197Z,99.99
2023-05-10T01:39:03.731Z,99.99
2023-05-10T01:40:03.047Z,99.99
2023-05-10T01:41:03.259Z,99.99
2023-05-10T01:42:03.483Z,99.99
2023-05-10T01:43:03.657Z,99.99
2023-05-10T01:44:03.833Z,99.99
2023-05-10T01:45:04.741Z,99.99
2023-05-10T01:46:05.200Z,99.99
2023-05-10T01:47:04.409Z,99.99
2023-05-10T01:48:04.539Z,99.99
2023-05-10T01:49:05.704Z,99.99
2023-05-10T01:50:05.713Z,99.99
2023-05-10T01:51:05.121Z,99.99
2023-05-10T01:52:05.749Z,99.99
2023-05-10T01:53:06.066Z,99.99
2023-05-10T01:54:07.558Z,99.99
2023-05-10T01:55:05.969Z,99.99
2023-05-10T01:56:06.215Z,99.99
2023-05-10T01:57:06.335Z,99.99
2023-05-10T01:58:06.455Z,99.99
2023-05-10T01:59:07.208Z,99.99
2023-05-10T02:00:06.916Z,99.99
2023-05-10T02:01:08.238Z,99.99
2023-05-10T02:02:07.193Z,99.99
2023-05-10T02:03:07.379Z,99.99
2023-05-10T02:04:08.382Z,99.99
2023-05-10T02:05:07.686Z,99.99
2023-05-10T02:06:07.828Z,99.99
2023-05-10T02:07:07.978Z,99.99
2023-05-10T02:08:08.093Z,99.99
2023-05-10T02:09:08.207Z,99.99
2023-05-10T02:10:08.345Z,99.99
2023-05-10T02:11:08.557Z,99.99
2023-05-10T02:12:08.787Z,99.99
2023-05-10T02:13:09.174Z,99.99
2023-05-10T02:14:09.698Z,99.99
2023-05-10T02:15:09.284Z,99.99
2023-05-10T02:16:09.543Z,99.99
2023-05-10T02:17:09.706Z,99.99
2023-05-10T02:18:09.866Z,99.99
2023-05-10T02:19:11.205Z,99.99
2023-05-10T02:20:10.124Z,99.99
2023-05-10T02:21:10.343Z,99.99
2023-05-10T02:22:11.708Z,99.99
2023-05-10T02:23:10.759Z,99.99
2023-05-10T02:24:10.994Z,99.99
2023-05-10T02:25:11.220Z,99.99
2023-05-10T02:26:12.205Z,99.99
2023-05-10T02:27:11.620Z,99.99
2023-05-10T02:28:12.746Z,99.99
2023-05-10T02:29:12.032Z,99.99
2023-05-10T02:30:12.269Z,99.99
2023-05-10T02:31:12.453Z,99.99
2023-05-10T02:32:13.363Z,99.99
2023-05-10T02:33:12.874Z,99.99
2023-05-10T02:34:13.712Z,99.99
2023-05-10T02:35:13.237Z,99.99
2023-05-10T02:36:13.384Z,99.99
2023-05-10T02:37:13.545Z,99.99
2023-05-10T02:38:13.714Z,99.99
2023-05-10T02:39:13.917Z,99.99
2023-05-10T02:40:14.899Z,99.99
2023-05-10T02:41:15.082Z,99.99
2023-05-10T02:42:16.214Z,99.99
2023-05-10T02:43:14.709Z,99.99
2023-05-10T02:44:15.575Z,99.99
2023-05-10T02:45:15.713Z,99.99
2023-05-10T02:46:15.826Z,99.99
2023-05-10T02:47:15.353Z,99.99
2023-05-10T02:48:16.285Z,99.99
2023-05-10T02:49:16.724Z,99.99
2023-05-10T02:50:17.168Z,99.99
2023-05-10T02:51:16.020Z,99.99
2023-05-10T02:52:17.082Z,99.99
2023-05-10T02:53:16.367Z,99.99
2023-05-10T02:54:16.536Z,99.99
2023-05-10T02:55:17.728Z,99.99
2023-05-10T02:56:16.867Z,99.99
2023-05-10T02:57:17.725Z,99.99
2023-05-10T02:58:17.229Z,99.99
2023-05-10T02:59:17.414Z,99.99
2023-05-10T03:00:17.861Z,99.99
2023-05-10T03:01:17.819Z,99.99
2023-05-10T03:02:17.996Z,99.99
2023-05-10T03:03:18.177Z,99.99
2023-05-10T03:04:19.288Z,99.99
2023-05-10T03:05:18.584Z,99.99
2023-05-10T03:06:19.223Z,99.99
2023-05-10T03:07:18.852Z,99.99
2023-05-10T03:08:18.993Z,99.99
2023-05-10T03:09:19.277Z,99.99
2023-05-10T03:10:19.623Z,99.99
2023-05-10T03:11:20.264Z,99.99
2023-05-10T03:12:20.229Z,99.99
2023-05-10T03:13:19.856Z,99.99
2023-05-10T03:14:21.227Z,99.99
2023-05-10T03:15:21.724Z,99.99
2023-05-10T03:16:20.411Z,99.99
2023-05-10T03:17:20.496Z,99.99
2023-05-10T03:18:20.645Z,99.99
2023-05-10T03:19:21.733Z,99.99
2023-05-10T03:20:21.727Z,99.99
2023-05-10T03:21:21.280Z,99.99
2023-05-10T03:22:21.462Z,99.99
2023-05-10T03:23:22.592Z,99.99
2023-05-10T03:24:23.595Z,99.99
2023-05-10T03:25:22.096Z,99.99
2023-05-10T03:26:22.299Z,99.99
2023-05-10T03:27:22.780Z,99.99
2023-05-10T03:28:22.710Z,99.99
2023-05-10T03:29:23.762Z,99.99
2023-05-10T03:30:23.030Z,99.99
2023-05-10T03:31:24.799Z,99.99
2023-05-10T03:32:23.511Z,99.99
2023-05-10T03:33:24.250Z,99.99
2023-05-10T03:34:23.777Z,99.99
2023-05-10T03:35:25.591Z,99.99
2023-05-10T03:36:24.096Z,99.99
2023-05-10T03:37:24.299Z,99.99
2023-05-10T03:38:25.237Z,99.99
2023-05-10T03:39:25.232Z,99.99
2023-05-10T03:40:25.736Z,99.99
2023-05-10T03:41:26.601Z,99.99
2023-05-10T03:42:25.751Z,99.99
2023-05-10T03:43:25.404Z,99.99
2023-05-10T03:44:25.571Z,99.99
2023-05-10T03:45:26.235Z,99.99
2023-05-10T03:46:25.969Z,99.99
2023-05-10T03:47:26.776Z,99.99
2023-05-10T03:48:26.203Z,99.99
2023-05-10T03:49:26.367Z,99.99
2023-05-10T03:50:26.548Z,99.99
2023-05-10T03:51:27.226Z,99.99
2023-05-10T03:52:28.778Z,99.99
2023-05-10T03:53:27.161Z,99.99
2023-05-10T03:54:27.326Z,99.99
2023-05-10T03:55:27.511Z,99.99
2023-05-10T03:56:28.243Z,99.99
2023-05-10T03:57:28.778Z,99.99
2023-05-10T03:58:28.772Z,99.99
2023-05-10T03:59:28.282Z,99.99
2023-05-10T04:00:28.460Z,99.99
2023-05-10T04:01:29.278Z,99.99
2023-05-10T04:02:29.859Z,99.99
2023-05-10T04:03:29.073Z,99.99
2023-05-10T04:04:29.184Z,99.99
2023-05-10T04:05:29.368Z,99.99
2023-05-10T04:06:29.623Z,99.99
2023-05-10T04:07:30.289Z,99.99
2023-05-10T04:08:29.827Z,99.99
2023-05-10T04:09:30.295Z,99.99
2023-05-10T04:10:30.787Z,99.99
2023-05-10T04:11:30.414Z,99.99
2023-05-10T04:12:30.565Z,99.99
2023-05-10T04:13:31.609Z,99.99
2023-05-10T04:14:30.940Z,99.99
2023-05-10T04:15:32.788Z,99.99
2023-05-10T04:16:32.279Z,99.99
2023-05-10T04:17:31.527Z,99.99
2023-05-10T04:18:31.643Z,99.99
2023-05-10T04:19:32.794Z,99.99
2023-05-10T04:20:32.082Z,99.99
2023-05-10T04:21:32.743Z,99.99
2023-05-10T04:22:32.372Z,99.99
2023-05-10T04:23:32.528Z,99.99
2023-05-10T04:24:32.698Z,99.99
2023-05-10T04:25:33.299Z,99.99
2023-05-10T04:26:33.058Z,99.99
2023-05-10T04:27:33.752Z,99.99
2023-05-10T04:28:33.394Z,99.99
2023-05-10T04:29:33.530Z,99.99
2023-05-10T04:30:33.688Z,99.99
2023-05-10T04:31:33.848Z,99.99
2023-05-10T04:32:34.076Z,99.99
2023-05-10T04:33:34.129Z,99.99
2023-05-10T04:34:35.258Z,99.99
2023-05-10T04:35:34.498Z,99.99
2023-05-10T04:36:35.288Z,99.99
2023-05-10T04:37:34.835Z,99.99
2023-05-10T04:38:35.783Z,99.99
2023-05-10T04:39:38.438Z,99.99
2023-05-10T04:40:37.252Z,99.99
2023-05-10T04:41:35.498Z,99.99
2023-05-10T04:42:35.803Z,99.99
2023-05-10T04:43:37.351Z,99.99
2023-05-10T04:44:36.764Z,99.99
2023-05-10T04:45:36.747Z,99.99
2023-05-10T04:46:38.276Z,99.99
2023-05-10T04:47:36.483Z,99.99
2023-05-10T04:48:36.553Z,99.99
2023-05-10T04:49:36.778Z,99.99
2023-05-10T04:50:36.982Z,99.99
2023-05-10T04:51:37.167Z,99.99
2023-05-10T04:52:37.370Z,99.99
2023-05-10T04:53:37.605Z,99.99
2023-05-10T04:54:37.774Z,99.99
2023-05-10T04:55:38.796Z,99.99
2023-05-10T04:56:38.296Z,99.99
2023-05-10T04:57:38.196Z,99.99
2023-05-10T04:58:38.363Z,99.99
2023-05-10T04:59:38.857Z,99.99
2023-05-10T05:00:38.731Z,99.99
2023-05-10T05:01:38.957Z,99.99
2023-05-10T05:02:39.195Z,99.99
2023-05-10T05:03:39.382Z,99.99
2023-05-10T05:04:40.246Z,99.99
2023-05-10T05:05:39.692Z,99.99
2023-05-10T05:06:39.901Z,99.99
2023-05-10T05:07:40.068Z,99.99
2023-05-10T05:08:40.241Z,99.99
2023-05-10T05:09:40.444Z,99.99
2023-05-10T05:10:40.808Z,99.99
2023-05-10T05:11:40.877Z,99.99
2023-05-10T05:12:41.063Z,99.99
2023-05-10T05:13:41.797Z,99.99
2023-05-10T05:14:41.443Z,99.99
2023-05-10T05:15:41.604Z,99.99
2023-05-10T05:16:41.831Z,99.99
2023-05-10T05:17:42.848Z,99.99
2023-05-10T05:18:42.209Z,99.99
2023-05-10T05:19:43.259Z,99.99
2023-05-10T05:20:43.258Z,99.99
2023-05-10T05:21:42.664Z,99.99
2023-05-10T05:22:44.250Z,99.99
2023-05-10T05:23:42.989Z,99.99
2023-05-10T05:24:43.315Z,99.99
2023-05-10T05:25:43.333Z,99.99
2023-05-10T05:26:44.256Z,99.99
2023-05-10T05:27:43.645Z,99.99
2023-05-10T05:28:44.326Z,99.99
2023-05-10T05:29:44.062Z,99.99
2023-05-10T05:30:44.221Z,99.99
2023-05-10T05:31:44.486Z,99.99
2023-05-10T05:32:44.547Z,99.99
2023-05-10T05:33:44.643Z,99.99
2023-05-10T05:34:44.824Z,99.99
2023-05-10T05:35:45.754Z,99.99
2023-05-10T05:36:45.129Z,99.99
2023-05-10T05:37:45.318Z,99.99
2023-05-10T05:38:45.501Z,99.99
2023-05-10T05:39:46.268Z,99.99
2023-05-10T05:40:45.785Z,99.99
2023-05-10T05:41:45.939Z,99.99
2023-05-10T05:42:46.775Z,99.99
2023-05-10T05:43:46.815Z,99.99
2023-05-10T05:44:47.325Z,99.99
2023-05-10T05:45:46.682Z,99.99
2023-05-10T05:46:46.859Z,99.99
2023-05-10T05:47:47.853Z,99.99
2023-05-10T05:48:47.223Z,99.99
2023-05-10T05:49:47.442Z,99.99
2023-05-10T05:50:47.597Z,99.99
2023-05-10T05:51:47.793Z,99.99
2023-05-10T05:52:49.834Z,99.99
2023-05-10T05:53:49.795Z,99.99
2023-05-10T05:54:48.299Z,99.99
2023-05-10T05:55:48.442Z,99.99
2023-05-10T05:56:49.312Z,99.99
2023-05-10T05:57:50.132Z,99.99
2023-05-10T05:58:48.981Z,99.99
2023-05-10T05:59:49.133Z,99.99
2023-05-10T06:00:49.311Z,99.99
2023-05-10T06:01:49.859Z,99.99
2023-05-10T06:02:50.411Z,99.99
2023-05-10T06:03:53.168Z,99.99
2023-05-10T06:04:51.075Z,99.99
2023-05-10T06:05:50.247Z,99.99
2023-05-10T06:06:51.311Z,99.99
2023-05-10T06:07:51.780Z,99.99
2023-05-10T06:08:50.787Z,99.99
2023-05-10T06:09:51.812Z,99.99
2023-05-10T06:10:51.218Z,99.99
2023-05-10T06:11:52.396Z,99.99
2023-05-10T06:12:52.824Z,99.99
2023-05-10T06:13:51.734Z,99.99
2023-05-10T06:14:51.880Z,99.99
2023-05-10T06:15:52.088Z,99.99
2023-05-10T06:16:52.852Z,99.99
2023-05-10T06:17:52.490Z,99.99
2023-05-10T06:18:53.270Z,99.99
2023-05-10T06:19:52.808Z,99.99
2023-05-10T06:20:53.322Z,99.99
2023-05-10T06:21:53.934Z,99.99
2023-05-10T06:22:54.330Z,99.99
2023-05-10T06:23:54.445Z,99.99
2023-05-10T06:24:53.574Z,99.99
2023-05-10T06:25:53.751Z,99.99
2023-05-10T06:26:53.924Z,99.99
2023-05-10T06:27:54.102Z,99.99
2023-05-10T06:28:55.783Z,99.99
2023-05-10T06:30:01.959Z,99.99
2023-05-10T06:30:57.347Z,99.99
2023-05-10T06:31:54.740Z,99.99
2023-05-10T06:32:55.849Z,99.99
2023-05-10T06:33:56.728Z,99.99
2023-05-10T06:34:56.780Z,99.99
2023-05-10T06:35:55.392Z,99.99
2023-05-10T06:36:55.554Z,99.99
2023-05-10T06:37:55.741Z,99.99
2023-05-10T06:38:56.825Z,99.99
2023-05-10T06:39:56.106Z,99.99
2023-05-10T06:40:56.286Z,99.99
2023-05-10T06:41:57.340Z,99.99
2023-05-10T06:42:57.789Z,99.99
2023-05-10T06:43:56.818Z,99.99
2023-05-10T06:44:58.643Z,99.99
2023-05-10T06:45:57.858Z,99.99
2023-05-10T06:46:57.850Z,99.99
2023-05-10T06:47:57.417Z,99.99
2023-05-10T06:48:57.618Z,99.99
2023-05-10T06:49:57.847Z,99.99
2023-05-10T06:50:58.336Z,99.99
2023-05-10T06:51:58.266Z,99.99
2023-05-10T06:52:58.464Z,99.99
2023-05-10T06:53:58.619Z,99.99
2023-05-10T06:54:58.825Z,99.99
2023-05-10T06:55:59.068Z,99.99
2023-05-10T06:56:59.832Z,99.99
2023-05-10T06:58:01.230Z,99.99
2023-05-10T06:59:01.305Z,99.99
2023-05-10T06:59:59.853Z,99.99
2023-05-10T07:01:00.081Z,99.99
2023-05-10T07:02:00.859Z,99.99
2023-05-10T07:03:00.424Z,99.99
2023-05-10T07:04:00.627Z,99.99
2023-05-10T07:05:14.876Z,99.99
2023-05-10T07:06:02.945Z,99.99
2023-05-10T07:07:01.082Z,99.99
2023-05-10T07:08:01.805Z,99.99
2023-05-10T07:09:01.469Z,99.99
2023-05-10T07:10:02.294Z,99.99
2023-05-10T07:11:01.798Z,99.99
2023-05-10T07:12:02.858Z,99.99
2023-05-10T07:13:02.274Z,99.99
2023-05-10T07:14:02.423Z,99.99
2023-05-10T07:15:02.578Z,99.99
2023-05-10T07:16:03.823Z,99.99
2023-05-10T07:17:02.880Z,99.99
2023-05-10T07:18:03.997Z,99.99
2023-05-10T07:19:03.298Z,99.99
2023-05-10T07:20:03.473Z,99.99
2023-05-10T07:21:03.742Z,99.99
2023-05-10T07:22:07.280Z,99.99
2023-05-10T07:23:03.978Z,99.99
2023-05-10T07:24:04.137Z,99.99
2023-05-10T07:25:04.300Z,99.99
2023-05-10T07:26:04.489Z,99.99
2023-05-10T07:27:06.305Z,99.99
2023-05-10T07:28:04.814Z,99.99
2023-05-10T07:29:04.968Z,99.99
2023-05-10T07:30:05.402Z,99.99
2023-05-10T07:31:05.883Z,99.99
2023-05-10T07:32:06.330Z,99.99
2023-05-10T07:33:05.807Z,99.99
2023-05-10T07:34:06.805Z,99.99
2023-05-10T07:35:06.097Z,99.99
2023-05-10T07:36:06.280Z,98.80
2023-05-10T07:37:06.866Z,97.24
2023-05-10T07:38:06.648Z,96.93
2023-05-10T07:39:07.345Z,96.42
2023-05-10T07:40:08.802Z,95.57
2023-05-10T07:41:07.183Z,94.92
2023-05-10T07:42:07.847Z,94.82
2023-05-10T07:43:09.343Z,95.02
2023-05-10T07:44:07.704Z,94.42
2023-05-10T07:45:09.307Z,94.15
2023-05-10T07:46:08.076Z,94.91
2023-05-10T07:47:08.280Z,94.40
2023-05-10T07:48:08.496Z,95.62
2023-05-10T07:49:08.857Z,96.22
2023-05-10T07:50:09.840Z,95.62
2023-05-10T07:51:09.161Z,93.84
2023-05-10T07:52:09.964Z,94.39
2023-05-10T07:53:10.341Z,94.70
2023-05-10T07:54:09.671Z,95.91
2023-05-10T07:55:09.871Z,95.70
2023-05-10T07:56:10.063Z,97.07
2023-05-10T07:57:10.267Z,97.78
2023-05-10T07:58:10.440Z,97.58
2023-05-10T07:59:12.681Z,97.38
2023-05-10T08:00:12.351Z,96.87
2023-05-10T08:01:11.015Z,97.02
2023-05-10T08:02:12.738Z,96.01
2023-05-10T08:03:11.535Z,95.92
2023-05-10T08:04:12.351Z,94.66
2023-05-10T08:05:11.747Z,94.26
2023-05-10T08:06:12.356Z,92.44
2023-05-10T08:07:12.161Z,92.94
2023-05-10T08:08:12.337Z,92.44
2023-05-10T08:09:12.506Z,92.60
2023-05-10T08:10:12.646Z,92.65
2023-05-10T08:11:12.808Z,92.35
2023-05-10T08:12:12.982Z,92.30
2023-05-10T08:13:13.150Z,91.80
2023-05-10T08:14:13.331Z,90.94
2023-05-10T08:15:14.457Z,91.03
2023-05-10T08:16:13.678Z,91.34
2023-05-10T08:17:13.807Z,91.99
2023-05-10T08:18:14.052Z,91.63
2023-05-10T08:19:14.227Z,91.02
2023-05-10T08:20:16.176Z,91.38
2023-05-10T08:21:14.563Z,91.08
2023-05-10T08:22:15.315Z,91.54
2023-05-10T08:23:14.853Z,91.54
2023-05-10T08:24:15.806Z,91.70
2023-05-10T08:25:15.445Z,90.85
2023-05-10T08:26:15.397Z,90.95
2023-05-10T08:27:15.550Z,89.09
2023-05-10T08:28:16.405Z,88.63
2023-05-10T08:29:15.908Z,89.19
2023-05-10T08:30:16.873Z,89.13
2023-05-10T08:31:16.928Z,88.48
2023-05-10T08:32:17.369Z,88.59
2023-05-10T08:33:16.537Z,88.53
2023-05-10T08:34:16.705Z,88.43
2023-05-10T08:35:17.019Z,88.21
2023-05-10T08:36:17.367Z,87.50
2023-05-10T08:37:17.820Z,88.55
2023-05-10T08:38:17.416Z,88.70
2023-05-10T08:39:29.221Z,89.50
2023-05-10T08:40:20.407Z,90.25
2023-05-10T08:41:17.990Z,90.50
2023-05-10T08:42:19.822Z,91.20
2023-05-10T08:43:18.326Z,91.82
2023-05-10T08:44:18.598Z,92.32
2023-05-10T08:45:19.893Z,93.18
2023-05-10T08:46:19.428Z,93.78
2023-05-10T08:47:19.076Z,92.67
2023-05-10T08:48:20.239Z,92.97
2023-05-10T08:49:19.364Z,93.88
2023-05-10T08:50:20.338Z,94.09
2023-05-10T08:51:19.686Z,93.99
2023-05-10T08:52:19.836Z,95.00
2023-05-10T08:53:20.002Z,94.03
2023-05-10T08:54:20.172Z,93.48
2023-05-10T08:55:20.349Z,93.94
2023-05-10T08:56:21.358Z,93.59
2023-05-10T08:57:20.749Z,93.29
2023-05-10T08:58:20.950Z,93.51
2023-05-10T08:59:21.110Z,93.26
2023-05-10T09:00:21.859Z,92.00
2023-05-10T09:01:21.438Z,89.84
2023-05-10T09:02:22.370Z,87.26
2023-05-10T09:03:21.822Z,87.56
2023-05-10T09:04:22.033Z,87.05
2023-05-10T09:05:22.173Z,86.19
2023-05-10T09:06:22.217Z,88.51
2023-05-10T09:07:23.825Z,87.81
2023-05-10T09:08:22.558Z,87.30
2023-05-10T09:09:23.387Z,86.90
2023-05-10T09:10:22.927Z,86.08
2023-05-10T09:11:23.120Z,86.08
2023-05-10T09:12:23.867Z,86.69
2023-05-10T09:13:23.562Z,87.46
2023-05-10T09:14:26.350Z,88.57
2023-05-10T09:15:24.058Z,87.19
2023-05-10T09:16:24.138Z,88.67
2023-05-10T09:17:24.999Z,90.03
2023-05-10T09:18:27.287Z,89.48
2023-05-10T09:19:26.302Z,87.96
2023-05-10T09:20:24.807Z,87.12
2023-05-10T09:21:25.004Z,88.37
2023-05-10T09:22:25.150Z,87.62
2023-05-10T09:23:25.363Z,86.10
2023-05-10T09:24:25.560Z,86.91
2023-05-10T09:25:26.836Z,86.81
2023-05-10T09:26:26.875Z,86.41
2023-05-10T09:27:26.123Z,86.41
2023-05-10T09:28:27.334Z,86.30
2023-05-10T09:29:28.852Z,86.41
2023-05-10T09:30:26.699Z,86.30
2023-05-10T09:31:26.917Z,86.91
2023-05-10T09:32:28.010Z,86.10
2023-05-10T09:33:27.834Z,84.79
2023-05-10T09:34:27.349Z,84.99
2023-05-10T09:35:29.695Z,84.89
2023-05-10T09:36:28.899Z,86.71
2023-05-10T09:37:27.800Z,85.80
2023-05-10T09:38:28.883Z,85.40
2023-05-10T09:39:28.923Z,85.14
2023-05-10T09:40:28.371Z,86.10
2023-05-10T09:41:29.219Z,86.10
2023-05-10T09:42:30.383Z,85.05
2023-05-10T09:43:29.880Z,84.29
2023-05-10T09:44:29.127Z,84.05
2023-05-10T09:45:29.346Z,85.05
2023-05-10T09:46:30.435Z,85.22
2023-05-10T09:47:29.815Z,85.88
2023-05-10T09:48:29.912Z,84.77
2023-05-10T09:49:30.112Z,83.42
2023-05-10T09:50:30.323Z,83.62
2023-05-10T09:51:30.515Z,82.05
2023-05-10T09:52:30.705Z,82.01
2023-05-10T09:53:32.358Z,82.11
2023-05-10T09:54:31.852Z,81.61
2023-05-10T09:55:31.508Z,81.57
2023-05-10T09:56:32.895Z,81.67
2023-05-10T09:57:34.616Z,80.57
2023-05-10T09:58:32.941Z,83.08
2023-05-10T09:59:32.106Z,82.78
2023-05-10T10:00:33.854Z,80.84
2023-05-10T10:01:32.553Z,81.59
2023-05-10T10:02:32.696Z,82.93
2023-05-10T10:03:33.466Z,83.24
2023-05-10T10:04:33.077Z,84.65
2023-05-10T10:05:33.894Z,84.25
2023-05-10T10:06:33.921Z,84.45
2023-05-10T10:07:35.354Z,84.45
2023-05-10T10:08:33.725Z,84.25
2023-05-10T10:09:34.921Z,83.80
2023-05-10T10:10:34.864Z,84.83
2023-05-10T10:11:34.423Z,83.79
2023-05-10T10:12:34.468Z,82.90
2023-05-10T10:13:34.678Z,79.52
2023-05-10T10:14:35.859Z,80.36
2023-05-10T10:15:35.969Z,81.71
2023-05-10T10:16:35.302Z,81.71
2023-05-10T10:17:35.280Z,81.85
2023-05-10T10:18:35.522Z,81.24
2023-05-10T10:19:35.601Z,81.95
2023-05-10T10:20:35.773Z,82.19
2023-05-10T10:21:35.953Z,83.20
2023-05-10T10:22:36.857Z,82.73
2023-05-10T10:23:36.408Z,82.57
2023-05-10T10:24:37.388Z,83.28
2023-05-10T10:25:37.659Z,83.07
2023-05-10T10:26:37.395Z,84.83
2023-05-10T10:27:36.962Z,84.23
2023-05-10T10:28:37.866Z,84.37
2023-05-10T10:29:37.382Z,84.77
2023-05-10T10:30:37.580Z,84.57
2023-05-10T10:31:38.413Z,85.68
2023-05-10T10:32:39.002Z,86.69
2023-05-10T10:33:38.220Z,88.51
2023-05-10T10:34:38.404Z,88.17
2023-05-10T10:35:38.585Z,87.15
2023-05-10T10:36:38.755Z,87.56
2023-05-10T10:37:38.959Z,88.02
2023-05-10T10:38:40.362Z,87.21
2023-05-10T10:39:39.276Z,87.32
2023-05-10T10:40:40.369Z,87.62
2023-05-10T10:41:39.670Z,85.90
2023-05-10T10:42:40.408Z,85.24
2023-05-10T10:43:40.424Z,86.25
2023-05-10T10:44:40.391Z,86.55
2023-05-10T10:45:41.949Z,87.72
2023-05-10T10:46:40.556Z,86.91
2023-05-10T10:47:41.457Z,86.57
2023-05-10T10:48:40.878Z,85.80
2023-05-10T10:49:41.424Z,84.81
2023-05-10T10:50:42.889Z,84.07
2023-05-10T10:51:41.460Z,84.63
2023-05-10T10:52:42.498Z,81.67
2023-05-10T10:53:41.705Z,81.07
2023-05-10T10:54:41.919Z,81.07
2023-05-10T10:55:42.069Z,79.90
2023-05-10T10:56:42.228Z,83.06
2023-05-10T10:57:43.418Z,83.16
2023-05-10T10:58:44.374Z,83.10
2023-05-10T10:59:42.921Z,82.79
2023-05-10T11:00:43.037Z,82.23
2023-05-10T11:01:43.235Z,83.34
2023-05-10T11:02:44.387Z,83.58
2023-05-10T11:03:43.653Z,83.52
2023-05-10T11:04:43.876Z,86.04
2023-05-10T11:05:44.004Z,85.24
2023-05-10T11:06:44.908Z,82.27
2023-05-10T11:07:45.414Z,83.58
2023-05-10T11:08:45.420Z,83.78
2023-05-10T11:09:45.369Z,81.90
2023-05-10T11:10:44.894Z,81.60
2023-05-10T11:11:45.058Z,82.65
2023-05-10T11:12:45.266Z,83.60
2023-05-10T11:13:47.722Z,85.86
2023-05-10T11:14:46.408Z,87.68
2023-05-10T11:15:45.919Z,88.79
2023-05-10T11:16:47.244Z,89.24
2023-05-10T11:17:46.896Z,90.16
2023-05-10T11:18:47.488Z,90.36
2023-05-10T11:19:47.422Z,91.20
2023-05-10T11:20:46.584Z,91.00
2023-05-10T11:21:46.765Z,90.91
2023-05-10T11:22:46.980Z,91.82
2023-05-10T11:23:47.183Z,92.42
2023-05-10T11:24:48.968Z,93.23
2023-05-10T11:25:47.504Z,93.54
2023-05-10T11:26:47.696Z,94.45
2023-05-10T11:27:47.918Z,94.09
2023-05-10T11:28:48.094Z,93.48
2023-05-10T11:29:49.873Z,93.68
2023-05-10T11:30:48.564Z,93.99
2023-05-10T11:31:48.757Z,94.19
2023-05-10T11:32:48.998Z,93.99
2023-05-10T11:33:49.094Z,94.59
2023-05-10T11:34:49.292Z,95.15
2023-05-10T11:35:51.372Z,94.39
2023-05-10T11:36:51.389Z,94.95
2023-05-10T11:37:49.944Z,95.06
2023-05-10T11:38:50.011Z,95.97
2023-05-10T11:39:50.929Z,95.86
2023-05-10T11:40:50.486Z,95.66
2023-05-10T11:41:51.909Z,95.06
2023-05-10T11:42:51.424Z,95.36
2023-05-10T11:43:51.891Z,96.27
2023-05-10T11:44:51.890Z,95.06
2023-05-10T11:45:51.372Z,96.22
2023-05-10T11:46:51.752Z,95.04
2023-05-10T11:47:52.479Z,96.06
2023-05-10T11:48:51.767Z,96.77
2023-05-10T11:49:51.984Z,96.36
2023-05-10T11:50:53.183Z,96.26
2023-05-10T11:51:52.934Z,97.11
2023-05-10T11:52:52.513Z,96.71
2023-05-10T11:53:52.764Z,97.42
2023-05-10T11:54:53.812Z,97.72
2023-05-10T11:55:53.077Z,97.62
2023-05-10T11:56:54.133Z,97.87
2023-05-10T11:57:53.302Z,98.58
2023-05-10T11:58:53.495Z,99.08
2023-05-10T11:59:53.685Z,99.90
2023-05-10T12:00:53.841Z,99.99
2023-05-10T12:01:54.044Z,99.99
2023-05-10T12:02:54.297Z,99.99
2023-05-10T12:03:54.653Z,99.99
2023-05-10T12:04:55.397Z,99.99
2023-05-10T12:05:54.838Z,99.99
2023-05-10T12:06:55.439Z,99.99
2023-05-10T12:07:56.261Z,99.99
2023-05-10T12:08:55.397Z,99.99
2023-05-10T12:09:55.576Z,99.99
2023-05-10T12:10:56.388Z,99.99
2023-05-10T12:11:57.898Z,99.99
2023-05-10T12:12:56.933Z,99.99
2023-05-10T12:13:56.344Z,99.99
2023-05-10T12:14:58.389Z,99.99
2023-05-10T12:15:56.705Z,99.99
2023-05-10T12:16:58.889Z,99.99
2023-05-10T12:17:57.148Z,99.99
2023-05-10T12:18:57.440Z,99.99
2023-05-10T12:19:58.434Z,99.99
2023-05-10T12:20:58.399Z,99.99
2023-05-10T12:21:58.434Z,99.99
2023-05-10T12:23:00.335Z,99.99
2023-05-10T12:23:58.121Z,99.99
2023-05-10T12:24:58.910Z,99.99
2023-05-10T12:25:58.437Z,99.99
2023-05-10T12:26:59.855Z,99.99
2023-05-10T12:27:58.764Z,99.99
2023-05-10T12:28:58.939Z,99.99
2023-05-10T12:30:00.128Z,99.99
2023-05-10T12:30:59.952Z,99.99
2023-05-10T12:31:59.505Z,99.99
2023-05-10T12:32:59.741Z,99.99
2023-05-10T12:33:59.946Z,99.99
2023-05-10T12:35:01.458Z,99.99
2023-05-10T12:36:00.906Z,99.99
2023-05-10T12:37:02.399Z,99.77
2023-05-10T12:38:01.435Z,99.87
2023-05-10T12:39:00.823Z,99.26
2023-05-10T12:40:01.041Z,99.05
2023-05-10T12:41:01.265Z,97.03
2023-05-10T12:42:01.901Z,96.48
2023-05-10T12:43:01.480Z,97.69
2023-05-10T12:44:02.471Z,97.96
2023-05-10T12:45:01.973Z,97.09
2023-05-10T12:46:03.094Z,97.45
2023-05-10T12:47:02.458Z,97.65
2023-05-10T12:48:02.392Z,96.23
2023-05-10T12:49:09.079Z,95.53
2023-05-10T12:50:05.402Z,95.73
2023-05-10T12:51:02.904Z,95.38
2023-05-10T12:52:03.091Z,94.87
2023-05-10T12:53:03.271Z,94.87
2023-05-10T12:54:04.401Z,94.17
2023-05-10T12:55:03.675Z,91.50